Time;durP1;ratioP1;P1;durP2;ratioP2;P2;SDS_P1;SDS_P2;PMS_P1;PMS_P2;Temp;Humidity;BMP_temperature;BMP_pressure;BME280_temperature;BME280_humidity;BME280_pressure;Samples;Min_cycle;Max_cycle;Signal;HPM_P1;HPM_P2
2022/12/10 00:02:15;;;;;;;42.87;19.57;;;-2.20;99.90;;;;;;5182688;28;20188;-50
2022/12/10 00:04:46;;;;;;;34.40;16.67;;;-2.30;99.90;;;;;;5192240;28;20175;-51
2022/12/10 00:07:16;;;;;;;42.50;18.93;;;-2.20;99.90;;;;;;5198123;28;20186;-53
2022/12/10 00:09:47;;;;;;;33.47;16.67;;;-2.20;99.90;;;;;;5180984;28;20697;-48
2022/12/10 00:12:17;;;;;;;36.57;16.90;;;-2.20;99.90;;;;;;5197026;28;20187;-48
2022/12/10 00:14:48;;;;;;;37.43;17.87;;;-2.10;99.90;;;;;;5179659;28;20685;-50
2022/12/10 00:17:19;;;;;;;31.60;16.70;;;-2.10;99.90;;;;;;5183678;28;20180;-50
2022/12/10 00:19:49;;;;;;;34.17;17.30;;;-2.10;99.90;;;;;;5199322;28;20276;-51
2022/12/10 00:22:20;;;;;;;34.77;17.97;;;-2.10;99.90;;;;;;5196024;28;20629;-49
2022/12/10 00:24:50;;;;;;;32.97;16.53;;;-2.00;99.90;;;;;;5182654;28;20201;-49
2022/12/10 00:27:21;;;;;;;37.73;19.10;;;-1.90;99.90;;;;;;5215098;28;20184;-48
2022/12/10 00:29:51;;;;;;;33.23;16.67;;;-2.00;99.90;;;;;;5203787;28;20222;-50
2022/12/10 00:32:22;;;;;;;37.00;16.70;;;-2.10;99.90;;;;;;5198042;28;20318;-50
2022/12/10 00:34:53;;;;;;;38.30;18.23;;;-2.10;99.90;;;;;;5183317;28;20195;-49
2022/12/10 00:37:23;;;;;;;42.93;18.70;;;-2.10;99.90;;;;;;5206730;28;20280;-50
2022/12/10 00:39:54;;;;;;;43.77;16.97;;;-2.20;99.90;;;;;;5208871;28;20539;-50
2022/12/10 00:42:24;;;;;;;32.73;17.73;;;-2.20;99.90;;;;;;5193493;28;20188;-51
2022/12/10 00:44:55;;;;;;;35.60;17.00;;;-2.20;99.90;;;;;;5187813;28;20673;-48
2022/12/10 00:47:26;;;;;;;33.07;15.83;;;-2.10;99.90;;;;;;5199692;28;20192;-53
2022/12/10 00:49:56;;;;;;;36.63;16.73;;;-2.20;99.90;;;;;;5218951;28;20209;-49
2022/12/10 00:52:27;;;;;;;37.83;15.07;;;-2.20;99.90;;;;;;5218510;28;20188;-50
2022/12/10 00:54:57;;;;;;;42.53;19.03;;;-2.20;99.90;;;;;;5208857;28;20215;-49
2022/12/10 00:57:28;;;;;;;33.43;16.83;;;-2.20;99.90;;;;;;5205497;28;20191;-49
2022/12/10 00:59:59;;;;;;;31.03;17.37;;;-2.20;99.90;;;;;;5188398;28;20217;-49
2022/12/10 01:02:29;;;;;;;42.20;17.30;;;-2.30;99.90;;;;;;5197806;28;20202;-50
2022/12/10 01:05:00;;;;;;;40.13;17.30;;;-2.40;99.90;;;;;;5209496;28;20187;-50
2022/12/10 01:07:30;;;;;;;48.17;18.77;;;-2.30;99.90;;;;;;5213750;28;20262;-49
2022/12/10 01:10:02;;;;;;;33.67;17.07;;;-2.40;99.90;;;;;;5171265;28;20748;-50
2022/12/10 01:12:33;;;;;;;42.90;15.90;;;-2.30;99.90;;;;;;5207907;28;20561;-49
2022/12/10 01:15:04;;;;;;;34.30;16.87;;;-2.40;99.90;;;;;;5194786;28;20445;-50
2022/12/10 01:17:35;;;;;;;37.67;16.27;;;-2.40;99.90;;;;;;5208331;28;20189;-49
2022/12/10 01:20:06;;;;;;;34.70;15.83;;;-2.40;99.90;;;;;;5188176;28;20999;-49
2022/12/10 01:22:37;;;;;;;31.03;16.20;;;-2.40;99.90;;;;;;5207970;28;20615;-49
2022/12/10 01:25:08;;;;;;;33.60;16.30;;;-2.40;99.90;;;;;;5202235;28;20431;-48
2022/12/10 01:27:38;;;;;;;36.07;15.90;;;-2.40;99.90;;;;;;5173252;28;20207;-50
2022/12/10 01:30:10;;;;;;;32.80;17.00;;;-2.50;99.90;;;;;;5203363;28;20561;-52
2022/12/10 01:32:40;;;;;;;40.13;16.70;;;-2.50;99.90;;;;;;5207154;28;20202;-51
2022/12/10 01:35:11;;;;;;;31.60;15.87;;;-2.50;99.90;;;;;;5203080;28;20447;-52
2022/12/10 01:37:41;;;;;;;36.77;17.63;;;-2.50;99.90;;;;;;5203988;28;20647;-50
2022/12/10 01:40:12;;;;;;;28.53;15.40;;;-2.60;99.90;;;;;;5220068;28;20246;-50
2022/12/10 01:42:43;;;;;;;32.93;17.37;;;-2.60;99.90;;;;;;5188957;28;20183;-51
2022/12/10 01:45:13;;;;;;;44.13;17.80;;;-2.70;99.90;;;;;;5207012;28;20209;-54
2022/12/10 01:47:44;;;;;;;28.83;16.10;;;-2.70;99.90;;;;;;5203592;28;20268;-49
2022/12/10 01:50:16;;;;;;;35.20;16.47;;;-2.70;99.90;;;;;;5202004;28;20492;-51
2022/12/10 01:52:48;;;;;;;37.77;17.40;;;-2.60;99.90;;;;;;5198114;28;20640;-50
2022/12/10 01:55:40;;;;;;;30.90;16.23;;;-2.70;99.90;;;;;;5201918;28;20447;-50
2022/12/10 01:58:14;;;;;;;36.73;17.30;;;-2.70;99.90;;;;;;5207583;28;20454;-49
2022/12/10 02:00:52;;;;;;;33.87;16.97;;;-2.60;99.90;;;;;;5207199;28;20481;-51
2022/12/10 02:03:59;;;;;;;35.70;16.40;;;-2.70;99.90;;;;;;5201065;28;21036;-49
2022/12/10 02:06:56;;;;;;;29.40;16.07;;;-2.80;99.90;;;;;;5180245;28;20458;-49
2022/12/10 02:09:33;;;;;;;36.57;17.80;;;-2.80;99.90;;;;;;5203472;28;20471;-51
2022/12/10 02:12:21;;;;;;;36.07;17.97;;;-2.80;99.90;;;;;;5185624;28;20444;-50
2022/12/10 02:15:03;;;;;;;33.60;16.80;;;-2.90;99.90;;;;;;5188441;28;20526;-50
2022/12/10 02:17:42;;;;;;;30.80;16.30;;;-2.80;99.90;;;;;;5200794;28;20482;-50
2022/12/10 02:20:20;;;;;;;32.50;16.10;;;-2.80;99.90;;;;;;5200558;28;20541;-51
2022/12/10 02:23:18;;;;;;;29.80;16.53;;;-2.80;99.90;;;;;;5188795;28;20449;-51
2022/12/10 02:26:07;;;;;;;36.80;16.83;;;-2.90;99.90;;;;;;5206518;28;20917;-49
2022/12/10 02:28:55;;;;;;;31.37;15.53;;;-2.90;99.90;;;;;;5215101;22;20800;-50
2022/12/10 02:31:30;;;;;;;29.70;15.47;;;-2.90;99.90;;;;;;5209748;28;20502;-49
2022/12/10 02:34:05;;;;;;;33.57;17.23;;;-2.80;99.90;;;;;;5217380;28;20432;-49
2022/12/10 02:36:41;;;;;;;35.23;17.57;;;-2.80;99.90;;;;;;5230898;28;20845;-49
2022/12/10 02:39:17;;;;;;;32.60;16.50;;;-2.80;99.90;;;;;;5219119;28;20474;-50
2022/12/10 02:41:53;;;;;;;33.40;16.10;;;-2.80;99.90;;;;;;5218557;28;20951;-50
2022/12/10 02:44:25;;;;;;;36.17;18.50;;;-2.70;99.90;;;;;;5216013;28;20801;-49
2022/12/10 02:46:58;;;;;;;34.83;17.50;;;-2.70;99.90;;;;;;5222424;28;20435;-50
2022/12/10 02:49:30;;;;;;;37.63;17.47;;;-2.60;99.90;;;;;;5226461;28;20546;-49
2022/12/10 02:52:13;;;;;;;39.30;17.50;;;-2.60;99.90;;;;;;5205877;28;20967;-51
2022/12/10 02:54:46;;;;;;;38.70;16.47;;;-2.60;99.90;;;;;;5224170;28;20439;-50
2022/12/10 02:57:32;;;;;;;35.63;18.10;;;-2.60;99.90;;;;;;5222619;28;20481;-48
2022/12/10 03:00:09;;;;;;;28.40;15.77;;;-2.60;99.90;;;;;;5224343;28;20468;-50
2022/12/10 03:02:46;;;;;;;39.43;18.03;;;-2.60;99.90;;;;;;5220100;28;20467;-51
2022/12/10 03:05:48;;;;;;;40.17;18.73;;;-2.50;99.90;;;;;;5224624;28;20484;-50
2022/12/10 03:08:24;;;;;;;38.80;18.93;;;-2.50;99.90;;;;;;5238276;28;20884;-48
2022/12/10 03:11:14;;;;;;;45.50;19.93;;;-2.60;99.90;;;;;;5220201;28;20445;-51
2022/12/10 03:13:59;;;;;;;34.20;17.50;;;-2.60;99.90;;;;;;5225435;28;20533;-47
2022/12/10 03:16:35;;;;;;;35.10;17.20;;;-2.50;99.90;;;;;;5228316;28;20456;-50
2022/12/10 03:19:13;;;;;;;34.50;17.80;;;-2.40;99.90;;;;;;5221055;28;20469;-50
2022/12/10 03:21:46;;;;;;;36.63;18.57;;;-2.60;99.90;;;;;;5216358;28;20460;-48
2022/12/10 03:24:18;;;;;;;36.30;18.40;;;-2.50;99.90;;;;;;5221719;28;20916;-51
2022/12/10 03:26:49;;;;;;;47.07;20.60;;;-2.50;99.90;;;;;;5221351;28;20432;-51
2022/12/10 03:29:35;;;;;;;41.33;18.60;;;-2.50;99.90;;;;;;5223289;28;20480;-50
2022/12/10 03:32:06;;;;;;;36.37;19.13;;;-2.50;99.90;;;;;;5221036;28;20909;-48
2022/12/10 03:34:38;;;;;;;43.33;19.50;;;-2.60;99.90;;;;;;5221319;28;20478;-49
2022/12/10 03:37:10;;;;;;;36.73;18.03;;;-2.60;99.90;;;;;;5221116;28;20210;-49
2022/12/10 03:39:42;;;;;;;39.70;18.60;;;-2.60;99.90;;;;;;5190378;28;20515;-50
2022/12/10 03:42:13;;;;;;;42.10;20.53;;;-2.70;99.90;;;;;;5217616;28;20475;-48
2022/12/10 03:44:43;;;;;;;36.10;16.30;;;-2.60;99.90;;;;;;5221909;28;20532;-49
2022/12/10 03:47:14;;;;;;;35.43;18.27;;;-2.70;99.90;;;;;;5226191;28;20646;-53
2022/12/10 03:49:45;;;;;;;36.67;18.90;;;-2.70;99.90;;;;;;5225754;28;20194;-51
2022/12/10 03:52:16;;;;;;;42.57;18.40;;;-2.60;99.90;;;;;;5227393;28;20393;-48
2022/12/10 03:54:46;;;;;;;35.43;17.03;;;-2.60;99.90;;;;;;5220113;28;20175;-50
2022/12/10 03:57:17;;;;;;;43.70;17.93;;;-2.50;99.90;;;;;;5221848;28;20881;-50
2022/12/10 03:59:48;;;;;;;41.07;19.10;;;-2.60;99.90;;;;;;5220693;28;20336;-48
2022/12/10 04:02:18;;;;;;;40.67;19.87;;;-2.60;99.90;;;;;;5223594;28;20191;-50
2022/12/10 04:04:49;;;;;;;41.27;18.07;;;-2.60;99.90;;;;;;5222327;28;20663;-50
2022/12/10 04:07:20;;;;;;;41.07;18.37;;;-2.50;99.90;;;;;;5221104;28;20565;-50
2022/12/10 04:09:50;;;;;;;31.23;16.03;;;-2.50;99.90;;;;;;5209990;28;20275;-50
2022/12/10 04:12:21;;;;;;;32.40;18.30;;;-2.50;99.90;;;;;;5219317;28;20187;-51
2022/12/10 04:17:41;;;;;;;34.13;18.60;;;-2.40;99.90;;;;;;5225859;28;20209;-50
2022/12/10 04:28:39;;;;;;;34.23;17.97;;;-2.30;99.90;;;;;;5218108;28;20952;-50
2022/12/10 04:31:09;;;;;;;36.63;17.50;;;-2.20;99.90;;;;;;5227528;28;20428;-49
2022/12/10 04:33:40;;;;;;;30.27;15.10;;;-2.20;99.90;;;;;;5220838;28;20185;-48
2022/12/10 04:36:11;;;;;;;35.00;16.90;;;-2.20;99.90;;;;;;5223034;28;20528;-50
2022/12/10 04:38:42;;;;;;;34.33;16.97;;;-2.20;99.90;;;;;;5220546;28;20202;-48
2022/12/10 04:41:15;;;;;;;33.23;18.63;;;-2.20;99.90;;;;;;5214647;28;20650;-49
2022/12/10 04:43:45;;;;;;;37.53;17.37;;;-2.10;99.90;;;;;;5218863;28;20179;-49
2022/12/10 04:46:16;;;;;;;30.40;15.63;;;-2.20;99.90;;;;;;5228734;28;20850;-51
2022/12/10 04:48:47;;;;;;;27.97;15.47;;;-2.00;99.90;;;;;;5221432;28;20563;-51
2022/12/10 04:51:17;;;;;;;30.43;17.17;;;-2.10;99.90;;;;;;5225308;28;20189;-50
2022/12/10 04:53:48;;;;;;;31.97;16.23;;;-2.10;99.90;;;;;;5223731;28;20338;-48
2022/12/10 04:56:19;;;;;;;29.30;17.53;;;-2.00;99.90;;;;;;5200129;28;20700;-49
2022/12/10 04:58:50;;;;;;;31.93;17.00;;;-2.00;99.90;;;;;;5230216;28;20289;-51
2022/12/10 05:01:21;;;;;;;31.33;16.20;;;-2.00;99.90;;;;;;5223036;28;21095;-49
2022/12/10 05:03:51;;;;;;;28.00;14.70;;;-1.90;99.90;;;;;;5228066;28;20443;-49
2022/12/10 05:06:22;;;;;;;32.90;17.77;;;-1.90;99.90;;;;;;5220270;28;20601;-51
2022/12/10 05:08:53;;;;;;;30.40;16.60;;;-1.80;99.90;;;;;;5214653;28;20707;-49
2022/12/10 05:11:27;;;;;;;31.63;14.53;;;-1.90;99.90;;;;;;5223939;28;20171;-48
2022/12/10 05:13:58;;;;;;;33.77;16.20;;;-1.90;99.90;;;;;;5222558;28;20438;-48
2022/12/10 05:16:30;;;;;;;27.90;14.77;;;-1.90;99.90;;;;;;5222881;28;20429;-50
2022/12/10 05:19:01;;;;;;;30.90;16.47;;;-1.80;99.90;;;;;;5215582;28;20466;-50
2022/12/10 05:24:21;;;;;;;25.47;14.43;;;-1.80;99.90;;;;;;5220573;28;20190;-49
2022/12/10 05:26:52;;;;;;;29.57;14.77;;;-1.80;99.90;;;;;;5227036;28;20432;-51
2022/12/10 05:29:22;;;;;;;25.70;15.70;;;-1.80;99.90;;;;;;5217350;28;20210;-51
2022/12/10 05:31:53;;;;;;;26.83;14.63;;;-1.70;99.90;;;;;;5227317;28;20182;-49
2022/12/10 05:34:24;;;;;;;27.77;15.40;;;-1.70;99.90;;;;;;5222785;28;20194;-52
2022/12/10 05:36:54;;;;;;;22.83;14.20;;;-1.80;99.90;;;;;;5219641;28;20581;-51
2022/12/10 05:39:25;;;;;;;29.50;14.87;;;-1.80;99.90;;;;;;5227807;28;20206;-49
2022/12/10 05:41:56;;;;;;;29.60;15.80;;;-1.80;99.90;;;;;;5226011;28;20747;-49
2022/12/10 05:44:26;;;;;;;29.23;15.83;;;-1.80;99.90;;;;;;5188366;28;20264;-51
2022/12/10 05:46:57;;;;;;;30.40;15.40;;;-1.80;99.90;;;;;;5223966;28;20175;-49
2022/12/10 05:49:28;;;;;;;27.67;13.40;;;-1.70;99.90;;;;;;5230395;28;20201;-50
2022/12/10 05:51:59;;;;;;;28.37;13.97;;;-1.70;99.90;;;;;;5226935;28;20194;-51
2022/12/10 05:54:29;;;;;;;24.13;13.40;;;-1.70;99.90;;;;;;5210455;28;20285;-49
2022/12/10 05:57:00;;;;;;;25.00;13.73;;;-1.80;99.90;;;;;;5222873;28;20261;-51
2022/12/10 05:59:31;;;;;;;26.10;14.03;;;-1.70;99.90;;;;;;5228713;28;20203;-50
2022/12/10 06:02:01;;;;;;;25.13;14.20;;;-1.70;99.90;;;;;;5215705;28;20179;-48
2022/12/10 06:04:32;;;;;;;28.17;14.30;;;-1.60;99.90;;;;;;5201678;28;20183;-49
2022/12/10 06:07:03;;;;;;;19.47;13.03;;;-1.60;99.90;;;;;;5216938;28;20199;-49
2022/12/10 06:09:33;;;;;;;20.43;12.50;;;-1.70;99.90;;;;;;5224281;28;20204;-50
2022/12/10 06:12:04;;;;;;;23.90;12.90;;;-1.60;99.90;;;;;;5220431;28;20274;-48
2022/12/10 06:14:35;;;;;;;25.43;12.70;;;-1.70;99.90;;;;;;5231453;28;20680;-50
2022/12/10 06:17:06;;;;;;;19.70;13.03;;;-1.60;99.90;;;;;;5220387;28;20437;-48
2022/12/10 06:19:36;;;;;;;15.80;9.60;;;-1.60;99.90;;;;;;5221981;28;20211;-50
2022/12/10 06:22:07;;;;;;;18.43;11.80;;;-1.70;99.90;;;;;;5218597;28;20172;-50
2022/12/10 06:24:38;;;;;;;16.47;10.40;;;-1.60;99.90;;;;;;5224639;28;20744;-49
2022/12/10 06:27:09;;;;;;;26.00;12.47;;;-1.60;99.90;;;;;;5224392;28;20257;-51
2022/12/10 06:29:39;;;;;;;19.00;11.33;;;-1.60;99.90;;;;;;5231905;28;20210;-48
2022/12/10 06:32:10;;;;;;;21.17;11.63;;;-1.70;99.90;;;;;;5220222;28;20183;-49
2022/12/10 06:34:41;;;;;;;20.80;11.73;;;-1.70;99.90;;;;;;5225698;28;20195;-46
2022/12/10 06:37:11;;;;;;;18.70;10.00;;;-1.60;99.90;;;;;;5228113;28;20629;-47
2022/12/10 06:39:42;;;;;;;18.97;12.13;;;-1.60;99.90;;;;;;5224870;28;20219;-47
2022/12/10 06:42:13;;;;;;;17.23;10.27;;;-1.60;99.90;;;;;;5224187;28;20203;-48
2022/12/10 06:44:44;;;;;;;25.03;12.40;;;-1.60;99.90;;;;;;5231564;28;20189;-50
2022/12/10 06:47:15;;;;;;;19.70;12.07;;;-1.60;99.90;;;;;;5229710;28;20425;-53
2022/12/10 06:49:45;;;;;;;16.17;10.80;;;-1.60;99.90;;;;;;5225363;28;20199;-49
2022/12/10 06:52:16;;;;;;;19.17;10.93;;;-1.70;99.90;;;;;;5228953;28;20236;-48
2022/12/10 06:54:47;;;;;;;23.90;12.80;;;-1.70;99.90;;;;;;5226047;28;20191;-48
2022/12/10 06:57:18;;;;;;;23.40;12.73;;;-1.60;99.90;;;;;;5211308;28;20182;-47
2022/12/10 06:59:48;;;;;;;19.20;11.40;;;-1.70;99.90;;;;;;5230446;28;20245;-50
2022/12/10 07:02:19;;;;;;;19.10;11.33;;;-1.70;99.90;;;;;;5226475;28;20202;-51
2022/12/10 07:04:50;;;;;;;17.60;10.70;;;-1.60;99.90;;;;;;5222657;28;20176;-45
2022/12/10 07:07:20;;;;;;;21.23;11.23;;;-1.60;99.90;;;;;;5226375;28;20186;-47
2022/12/10 07:09:51;;;;;;;13.77;10.67;;;-1.60;99.90;;;;;;5228945;28;20199;-47
2022/12/10 07:12:22;;;;;;;18.23;11.23;;;-1.70;99.90;;;;;;5219377;28;20194;-47
2022/12/10 07:14:52;;;;;;;13.97;10.83;;;-1.60;99.90;;;;;;5228388;28;20183;-49
2022/12/10 07:17:23;;;;;;;19.73;11.30;;;-1.40;99.90;;;;;;5217034;28;20195;-48
2022/12/10 07:19:54;;;;;;;18.23;10.27;;;-1.60;99.90;;;;;;5227413;28;20215;-49
2022/12/10 07:22:25;;;;;;;17.40;10.30;;;-1.50;99.90;;;;;;5226555;28;20175;-49
2022/12/10 07:24:55;;;;;;;16.53;11.17;;;-1.60;99.90;;;;;;5225700;28;20175;-50
2022/12/10 07:27:26;;;;;;;16.03;10.50;;;-1.60;99.90;;;;;;5225468;28;20182;-50
2022/12/10 07:29:57;;;;;;;17.33;10.33;;;-1.50;99.90;;;;;;5203682;28;20226;-47
2022/12/10 07:32:28;;;;;;;12.93;10.00;;;-1.60;99.90;;;;;;5218741;28;20247;-46
2022/12/10 07:34:59;;;;;;;17.50;10.70;;;-1.60;99.90;;;;;;5225053;28;20564;-47
2022/12/10 07:37:29;;;;;;;18.57;11.50;;;-1.50;99.90;;;;;;5222439;28;20183;-47
2022/12/10 07:40:00;;;;;;;20.10;11.83;;;-1.60;99.90;;;;;;5227384;28;20202;-48
2022/12/10 07:42:31;;;;;;;15.47;10.23;;;-1.60;99.90;;;;;;5221505;28;20209;-48
2022/12/10 07:45:03;;;;;;;14.00;10.23;;;-1.60;99.90;;;;;;5217346;28;20215;-50
2022/12/10 07:47:38;;;;;;;18.10;10.57;;;-1.50;99.90;;;;;;5218589;28;20190;-49
2022/12/10 07:50:09;;;;;;;14.80;10.63;;;-1.50;99.90;;;;;;5225706;28;21383;-53
2022/12/10 07:52:40;;;;;;;15.93;10.70;;;-1.50;99.90;;;;;;5226592;28;20476;-50
2022/12/10 07:55:10;;;;;;;20.57;11.20;;;-1.40;99.90;;;;;;5224507;28;20188;-49
2022/12/10 07:57:41;;;;;;;16.23;10.87;;;-1.50;99.90;;;;;;5225031;28;20194;-49
2022/12/10 08:00:12;;;;;;;17.83;11.03;;;-1.50;99.90;;;;;;5224764;28;20233;-50
2022/12/10 08:02:43;;;;;;;16.63;10.23;;;-1.50;99.90;;;;;;5224423;28;20183;-46
2022/12/10 08:05:14;;;;;;;11.93;9.23;;;-1.50;99.90;;;;;;5222057;28;20956;-50
2022/12/10 08:07:44;;;;;;;15.50;10.07;;;-1.30;99.90;;;;;;5226188;28;20665;-49
2022/12/10 08:10:15;;;;;;;14.20;10.60;;;-1.40;99.90;;;;;;5222978;28;20210;-48
2022/12/10 08:12:46;;;;;;;24.37;11.33;;;-1.40;99.90;;;;;;5220265;28;20667;-48
2022/12/10 08:15:17;;;;;;;13.33;10.87;;;-1.40;99.90;;;;;;5221089;28;20226;-52
2022/12/10 08:17:47;;;;;;;18.30;11.27;;;-1.30;99.90;;;;;;5224523;28;20204;-47
2022/12/10 08:20:18;;;;;;;17.37;10.80;;;-1.30;99.90;;;;;;5217663;28;20215;-51
2022/12/10 08:22:49;;;;;;;16.97;10.60;;;-1.30;99.90;;;;;;5203613;28;20182;-51
2022/12/10 08:25:19;;;;;;;12.80;9.83;;;-1.30;99.90;;;;;;5228946;28;20241;-50
2022/12/10 08:27:50;;;;;;;17.80;11.07;;;-1.20;99.90;;;;;;5223716;28;20191;-48
2022/12/10 08:30:21;;;;;;;17.27;10.80;;;-1.30;99.90;;;;;;5219660;28;20354;-49
2022/12/10 08:32:51;;;;;;;13.07;10.40;;;-1.20;99.90;;;;;;5218500;28;20199;-47
2022/12/10 08:35:22;;;;;;;16.10;11.60;;;-1.30;99.90;;;;;;5223843;28;20588;-48
2022/12/10 08:37:53;;;;;;;16.50;11.30;;;-1.30;99.90;;;;;;5223365;28;20665;-51
2022/12/10 08:40:23;;;;;;;19.20;11.63;;;-1.30;99.90;;;;;;5223797;28;20210;-54
2022/12/10 08:42:54;;;;;;;19.63;11.23;;;-1.20;99.90;;;;;;5226551;28;20181;-54
2022/12/10 08:45:25;;;;;;;18.90;11.33;;;-1.20;99.90;;;;;;5226525;28;20218;-48
2022/12/10 08:47:55;;;;;;;14.90;10.27;;;-1.10;99.90;;;;;;5224997;28;20175;-47
2022/12/10 08:50:26;;;;;;;18.00;11.83;;;-1.10;99.90;;;;;;5224793;28;20233;-51
2022/12/10 08:52:57;;;;;;;20.13;12.03;;;-1.10;99.90;;;;;;5224655;28;20187;-50
2022/12/10 08:55:28;;;;;;;19.03;12.30;;;-1.10;99.90;;;;;;5226538;28;20571;-49
2022/12/10 08:57:59;;;;;;;17.57;10.77;;;-1.10;99.90;;;;;;5229800;28;20185;-49
2022/12/10 09:00:29;;;;;;;17.07;11.53;;;-1.00;99.90;;;;;;5227312;28;20219;-49
2022/12/10 09:03:00;;;;;;;19.37;11.43;;;-1.00;99.90;;;;;;5226917;28;20183;-49
2022/12/10 09:05:31;;;;;;;18.10;11.00;;;-1.00;99.90;;;;;;5227209;28;20662;-49
2022/12/10 09:08:02;;;;;;;14.80;9.73;;;-0.90;99.90;;;;;;5227524;28;20659;-49
2022/12/10 09:10:32;;;;;;;14.77;11.50;;;-1.10;99.90;;;;;;5228151;28;20230;-48
2022/12/10 09:13:03;;;;;;;14.37;9.93;;;-1.00;99.90;;;;;;5226983;28;20223;-49
2022/12/10 09:15:34;;;;;;;21.23;12.00;;;-0.90;99.90;;;;;;5225576;28;20800;-51
2022/12/10 09:18:05;;;;;;;16.43;11.90;;;-1.00;99.90;;;;;;5227629;28;20499;-50
2022/12/10 09:20:37;;;;;;;23.13;12.00;;;-0.90;99.90;;;;;;5223741;28;20234;-49
2022/12/10 09:23:07;;;;;;;20.03;13.00;;;-1.10;99.90;;;;;;5219129;28;20338;-48
2022/12/10 09:25:38;;;;;;;21.53;12.17;;;-1.10;99.90;;;;;;5226761;28;20441;-48
2022/12/10 09:28:09;;;;;;;18.67;12.33;;;-1.20;99.90;;;;;;5224292;28;20648;-48
2022/12/10 09:30:40;;;;;;;18.30;11.90;;;-1.20;99.90;;;;;;5226308;28;20228;-50
2022/12/10 09:33:10;;;;;;;19.93;13.07;;;-1.20;99.90;;;;;;5224338;28;20592;-51
2022/12/10 09:35:42;;;;;;;16.77;11.10;;;-1.20;99.90;;;;;;5222710;28;20183;-48
2022/12/10 09:38:13;;;;;;;21.60;12.77;;;-1.10;99.90;;;;;;5224081;28;20191;-47
2022/12/10 09:40:47;;;;;;;18.80;11.93;;;-1.00;99.90;;;;;;5228354;28;20488;-53
2022/12/10 09:43:57;;;;;;;16.17;12.13;;;-1.00;99.90;;;;;;5241746;28;20183;-48
2022/12/10 09:46:55;;;;;;;16.10;11.17;;;-1.00;99.90;;;;;;5211942;28;20472;-49
2022/12/10 09:49:51;;;;;;;17.90;12.10;;;-1.00;99.90;;;;;;5224807;28;20515;-48
2022/12/10 09:52:25;;;;;;;17.23;12.53;;;-0.90;99.90;;;;;;5224620;28;20804;-47
2022/12/10 09:55:01;;;;;;;18.90;11.17;;;-0.90;99.90;;;;;;5226208;28;20468;-49
2022/12/10 09:57:38;;;;;;;17.37;11.10;;;-1.00;99.90;;;;;;5197605;28;20538;-49
2022/12/10 10:00:35;;;;;;;17.83;11.40;;;-1.00;99.90;;;;;;5230121;28;20465;-49
2022/12/10 10:03:06;;;;;;;16.90;11.80;;;-0.90;99.90;;;;;;5227450;28;20792;-48
2022/12/10 10:05:41;;;;;;;17.60;12.43;;;-0.90;99.90;;;;;;5228341;28;20437;-50
2022/12/10 10:08:17;;;;;;;19.87;11.80;;;-0.80;99.90;;;;;;5228162;28;20846;-50
2022/12/10 10:10:48;;;;;;;18.70;12.77;;;-0.90;99.90;;;;;;5227196;28;20448;-47
2022/12/10 10:13:40;;;;;;;19.10;13.40;;;-0.90;99.90;;;;;;5227205;28;20447;-49
2022/12/10 10:16:28;;;;;;;19.80;12.77;;;-0.90;99.90;;;;;;5235510;28;20975;-50
2022/12/10 10:19:17;;;;;;;22.33;14.57;;;-0.80;99.90;;;;;;5214048;28;20465;-48
2022/12/10 10:21:49;;;;;;;24.23;14.43;;;-0.80;99.90;;;;;;5220077;28;20798;-48
2022/12/10 10:24:24;;;;;;;20.40;11.77;;;-0.80;99.90;;;;;;5227956;28;20949;-48
2022/12/10 10:26:59;;;;;;;18.70;12.00;;;-0.70;99.90;;;;;;5230376;28;20432;-48
2022/12/10 10:29:30;;;;;;;21.43;13.57;;;-0.50;99.90;;;;;;5230886;28;20531;-52
2022/12/10 10:32:19;;;;;;;16.37;12.20;;;-0.40;99.90;;;;;;5229383;28;20461;-50
2022/12/10 10:34:58;;;;;;;23.47;13.90;;;-0.60;99.90;;;;;;5218169;28;20296;-49
2022/12/10 10:37:35;;;;;;;19.90;13.30;;;-0.60;99.90;;;;;;5228027;28;20445;-49
2022/12/10 10:40:20;;;;;;;16.53;11.57;;;-0.60;99.90;;;;;;5241054;28;20475;-50
2022/12/10 10:42:55;;;;;;;18.90;12.57;;;-0.60;99.90;;;;;;5216967;28;20449;-48
2022/12/10 10:45:38;;;;;;;20.70;13.77;;;-0.60;99.90;;;;;;5227195;28;20948;-51
2022/12/10 10:48:12;;;;;;;21.57;12.60;;;-0.70;99.90;;;;;;5227141;28;20430;-47
2022/12/10 10:50:52;;;;;;;25.53;12.13;;;-0.70;99.90;;;;;;5224964;28;20992;-48
2022/12/10 10:53:32;;;;;;;21.00;12.97;;;-0.70;99.90;;;;;;5217610;28;20436;-49
2022/12/10 10:56:08;;;;;;;17.27;12.80;;;-0.60;99.90;;;;;;5219455;28;20436;-50
2022/12/10 10:58:53;;;;;;;21.93;12.97;;;-0.60;99.90;;;;;;5222582;28;20523;-51
2022/12/10 11:01:26;;;;;;;23.33;13.63;;;-0.60;99.90;;;;;;5219542;28;20446;-49
2022/12/10 11:03:59;;;;;;;20.70;12.60;;;-0.60;99.90;;;;;;5220437;28;20466;-48
2022/12/10 11:06:30;;;;;;;17.93;12.17;;;-0.60;99.90;;;;;;5223257;28;20437;-53
2022/12/10 11:09:01;;;;;;;26.87;13.30;;;-0.70;99.90;;;;;;5217427;28;20468;-49
2022/12/10 11:11:40;;;;;;;19.80;11.70;;;-0.60;99.90;;;;;;5218884;28;20431;-47
2022/12/10 11:14:43;;;;;;;21.77;13.70;;;-0.50;99.90;;;;;;5219567;28;20440;-48
2022/12/10 11:17:23;;;;;;;20.73;12.53;;;-0.50;99.90;;;;;;5235923;28;20449;-52
2022/12/10 11:20:00;;;;;;;22.07;12.40;;;-0.40;99.90;;;;;;5226452;28;20466;-47
2022/12/10 11:22:33;;;;;;;18.30;11.67;;;-0.40;99.90;;;;;;5223322;28;20509;-49
2022/12/10 11:25:11;;;;;;;21.37;13.07;;;-0.50;99.90;;;;;;5221749;28;20487;-50
2022/12/10 11:27:53;;;;;;;16.97;11.77;;;-0.60;99.90;;;;;;5222087;28;20440;-49
2022/12/10 11:30:25;;;;;;;21.70;12.00;;;-0.40;99.90;;;;;;5224406;28;20546;-49
2022/12/10 11:33:12;;;;;;;20.30;12.73;;;-0.60;99.90;;;;;;5225813;28;20441;-52
2022/12/10 11:35:51;;;;;;;17.17;12.20;;;-0.50;99.90;;;;;;5224782;28;20513;-51
2022/12/10 11:38:25;;;;;;;19.10;11.40;;;-0.30;99.90;;;;;;5222259;28;20448;-50
2022/12/10 11:41:12;;;;;;;24.80;12.70;;;-0.30;99.90;;;;;;5214668;28;20504;-50
2022/12/10 11:44:06;;;;;;;22.00;11.40;;;-0.20;99.90;;;;;;5234329;28;20517;-50
2022/12/10 11:47:01;;;;;;;18.83;11.93;;;-0.30;99.90;;;;;;5213177;28;20442;-50
2022/12/10 11:50:13;;;;;;;27.13;13.53;;;-0.40;99.90;;;;;;5217454;28;20573;-50
2022/12/10 11:53:06;;;;;;;19.13;12.17;;;-0.30;99.90;;;;;;5200817;28;20437;-52
2022/12/10 11:55:43;;;;;;;19.77;12.40;;;-0.40;99.90;;;;;;5215969;28;20449;-48
2022/12/10 11:58:19;;;;;;;33.13;14.40;;;-0.60;99.90;;;;;;5216463;28;20445;-51
2022/12/10 12:01:08;;;;;;;36.17;16.80;;;-0.60;99.90;;;;;;5212140;28;20485;-51
2022/12/10 12:04:14;;;;;;;26.53;12.73;;;-0.60;99.90;;;;;;5194433;28;20473;-52
2022/12/10 12:07:02;;;;;;;19.63;12.67;;;-0.50;99.90;;;;;;5178955;28;20529;-50
2022/12/10 12:09:47;;;;;;;14.57;10.43;;;-0.40;99.90;;;;;;5209322;28;20814;-52
2022/12/10 12:12:35;;;;;;;16.67;11.70;;;-0.40;99.90;;;;;;5191001;28;20456;-51
2022/12/10 12:15:37;;;;;;;16.43;11.33;;;-0.40;99.90;;;;;;5214724;28;20461;-50
2022/12/10 12:18:17;;;;;;;19.13;12.00;;;-0.30;99.90;;;;;;5214466;28;20504;-52
2022/12/10 12:21:00;;;;;;;16.23;11.37;;;-0.30;99.90;;;;;;5217582;28;20906;-55
2022/12/10 12:23:49;;;;;;;17.93;11.23;;;-0.30;99.90;;;;;;5190041;28;20458;-51
2022/12/10 12:26:28;;;;;;;22.93;12.40;;;-0.30;99.90;;;;;;5212713;28;21185;-50
2022/12/10 12:29:16;;;;;;;19.03;12.80;;;-0.30;99.90;;;;;;5216547;28;20809;-51
2022/12/10 12:32:31;;;;;;;20.10;12.17;;;-0.40;99.90;;;;;;5220359;28;20445;-51
2022/12/10 12:35:24;;;;;;;23.10;13.50;;;-0.40;99.90;;;;;;5217922;28;20867;-52
2022/12/10 12:38:00;;;;;;;15.03;11.17;;;-0.30;99.90;;;;;;5218772;28;20444;-50
2022/12/10 12:40:42;;;;;;;20.00;12.20;;;-0.40;99.90;;;;;;5218501;28;20473;-49
2022/12/10 12:43:22;;;;;;;19.17;12.43;;;-0.40;99.90;;;;;;5219181;28;20511;-50
2022/12/10 12:45:55;;;;;;;20.40;11.63;;;-0.30;99.90;;;;;;5218982;28;21054;-51
2022/12/10 12:48:56;;;;;;;20.07;12.03;;;-0.40;99.90;;;;;;5219221;28;20972;-51
2022/12/10 12:51:33;;;;;;;25.13;13.30;;;-0.50;99.90;;;;;;5221523;28;20480;-51
2022/12/10 12:54:04;;;;;;;19.47;12.90;;;-0.70;99.90;;;;;;5222842;28;20448;-49
2022/12/10 12:56:44;;;;;;;20.90;14.20;;;-0.70;99.90;;;;;;5216538;28;20445;-51
2022/12/10 12:59:47;;;;;;;33.00;13.67;;;-0.80;99.90;;;;;;5217426;28;20985;-50
2022/12/10 13:02:46;;;;;;;23.50;14.53;;;-0.70;99.90;;;;;;5210365;28;20428;-51
2022/12/10 13:05:29;;;;;;;21.93;15.20;;;-0.70;99.90;;;;;;5220153;28;20972;-52
2022/12/10 13:08:18;;;;;;;21.47;14.17;;;-0.70;99.90;;;;;;5219054;28;20441;-51
2022/12/10 13:11:11;;;;;;;20.40;13.43;;;-0.60;99.90;;;;;;5220264;28;21095;-52
2022/12/10 13:14:04;;;;;;;24.63;15.33;;;-0.70;99.90;;;;;;5213489;28;20439;-51
2022/12/10 13:16:47;;;;;;;29.10;13.80;;;-0.60;99.90;;;;;;5214122;28;20782;-52
2022/12/10 13:19:18;;;;;;;23.47;14.83;;;-0.60;99.90;;;;;;5217572;28;20815;-50
2022/12/10 13:22:01;;;;;;;23.50;14.37;;;-0.60;99.90;;;;;;5213886;28;20496;-52
2022/12/10 13:24:35;;;;;;;24.10;14.60;;;-0.50;99.90;;;;;;5215090;28;20544;-51